Time;durP1;ratioP1;P1;durP2;ratioP2;P2;SDS_P1;SDS_P2;PMS_P1;PMS_P2;Temp;Humidity;BMP_temperature;BMP_pressure;BME280_temperature;BME280_humidity;BME280_pressure;Samples;Min_cycle;Max_cycle;Signal;HPM_P1;HPM_P2
2023/05/06 00:01:14;;;;;;;11.80;6.88;;;15.10;75.10;;;;;;5070744;28;20052;-63
2023/05/06 00:03:40;;;;;;;10.13;7.20;;;15.10;75.10;;;;;;5070015;28;20039;-63
2023/05/06 00:06:07;;;;;;;11.30;6.53;;;15.10;75.20;;;;;;5064248;28;20494;-63
2023/05/06 00:08:33;;;;;;;10.70;6.47;;;15.10;75.20;;;;;;5074105;28;20036;-63
2023/05/06 00:10:59;;;;;;;11.18;7.72;;;15.10;75.30;;;;;;5073281;28;20033;-63
2023/05/06 00:13:25;;;;;;;12.48;7.22;;;15.10;75.30;;;;;;5068849;28;20038;-63
2023/05/06 00:15:50;;;;;;;10.40;6.65;;;15.10;75.50;;;;;;5071654;28;20465;-63
2023/05/06 00:18:16;;;;;;;11.57;7.32;;;15.10;75.50;;;;;;5074865;28;20357;-64
2023/05/06 00:20:42;;;;;;;10.85;7.28;;;15.10;75.50;;;;;;5073829;28;20393;-63
2023/05/06 00:23:08;;;;;;;11.90;7.20;;;15.10;75.50;;;;;;5061386;28;20060;-63
2023/05/06 00:25:33;;;;;;;12.10;7.20;;;15.10;75.60;;;;;;5061586;28;20109;-63
2023/05/06 00:27:59;;;;;;;11.25;7.40;;;15.10;75.70;;;;;;5066739;28;20035;-63
2023/05/06 00:30:25;;;;;;;10.95;7.40;;;15.10;75.70;;;;;;5072582;28;20028;-63
2023/05/06 00:32:53;;;;;;;10.73;6.63;;;15.10;75.80;;;;;;5062398;28;20021;-63
2023/05/06 00:35:19;;;;;;;11.15;7.40;;;15.10;75.80;;;;;;5057411;28;20033;-63
2023/05/06 00:37:45;;;;;;;11.70;7.20;;;15.10;75.80;;;;;;5073114;28;20078;-63
2023/05/06 00:40:13;;;;;;;12.32;8.00;;;15.10;75.90;;;;;;5062445;28;20111;-63
2023/05/06 00:42:39;;;;;;;12.18;8.35;;;15.10;75.90;;;;;;5084040;28;20037;-64
2023/05/06 00:45:06;;;;;;;12.43;8.38;;;15.10;76.00;;;;;;5058832;28;20365;-63
2023/05/06 00:47:32;;;;;;;10.77;7.03;;;15.10;76.00;;;;;;5070641;28;20029;-63
2023/05/06 00:49:58;;;;;;;11.32;8.23;;;15.10;76.10;;;;;;5062208;28;20024;-63
2023/05/06 00:52:24;;;;;;;12.07;8.35;;;15.10;76.10;;;;;;5072269;28;20399;-63
2023/05/06 00:54:50;;;;;;;13.35;7.93;;;15.10;76.20;;;;;;5070342;28;20028;-63
2023/05/06 00:57:16;;;;;;;12.40;7.93;;;15.10;76.20;;;;;;5066411;28;20406;-63
2023/05/06 00:59:42;;;;;;;13.18;8.88;;;15.10;76.20;;;;;;5073962;28;20020;-63
2023/05/06 01:02:08;;;;;;;13.27;8.77;;;15.10;76.30;;;;;;5067614;28;20040;-63
2023/05/06 01:04:35;;;;;;;13.65;9.63;;;15.10;76.30;;;;;;5064726;28;20036;-63
2023/05/06 01:07:15;;;;;;;17.00;9.90;;;15.10;76.30;;;;;;5066085;28;20028;-63
2023/05/06 01:10:12;;;;;;;15.63;9.85;;;15.10;76.40;;;;;;5065713;28;20032;-63
2023/05/06 01:12:54;;;;;;;14.73;9.68;;;15.10;76.40;;;;;;5032408;28;20048;-64
2023/05/06 01:15:35;;;;;;;14.90;10.73;;;15.10;76.50;;;;;;5068205;28;20456;-63
2023/05/06 01:18:12;;;;;;;14.32;10.02;;;15.10;76.60;;;;;;5064058;28;20460;-63
2023/05/06 01:20:40;;;;;;;14.02;10.15;;;15.10;76.60;;;;;;5063716;28;20025;-64
2023/05/06 01:23:12;;;;;;;14.77;10.40;;;15.10;76.60;;;;;;5064668;28;20128;-63
2023/05/06 01:25:38;;;;;;;14.60;10.05;;;15.10;76.70;;;;;;5067823;28;20032;-63
2023/05/06 01:28:08;;;;;;;15.05;10.07;;;15.10;76.70;;;;;;5061081;28;20424;-63
2023/05/06 01:30:47;;;;;;;13.77;9.10;;;15.10;76.70;;;;;;5088191;28;20074;-63
2023/05/06 01:33:33;;;;;;;13.70;9.90;;;15.10;76.80;;;;;;5072334;28;20056;-64
2023/05/06 01:36:07;;;;;;;14.98;10.23;;;15.10;76.70;;;;;;5069919;28;20112;-63
2023/05/06 01:38:36;;;;;;;15.02;9.95;;;15.10;76.70;;;;;;5065851;28;20445;-63
2023/05/06 01:41:02;;;;;;;13.93;9.55;;;15.10;76.70;;;;;;5072408;28;20029;-63
2023/05/06 01:43:37;;;;;;;14.45;9.77;;;15.10;76.70;;;;;;5072813;28;20028;-63
2023/05/06 01:46:03;;;;;;;15.73;10.52;;;15.10;76.80;;;;;;5069772;28;20025;-63
2023/05/06 01:48:32;;;;;;;13.68;10.18;;;15.10;76.80;;;;;;5070855;28;20429;-63
2023/05/06 01:50:58;;;;;;;16.02;11.23;;;15.10;76.80;;;;;;5067625;28;20032;-63
2023/05/06 01:53:25;;;;;;;15.13;10.52;;;15.10;76.90;;;;;;5062407;28;20053;-63
2023/05/06 01:55:50;;;;;;;15.30;11.40;;;15.10;76.90;;;;;;5066175;28;20051;-63
2023/05/06 01:58:16;;;;;;;13.57;10.30;;;15.10;76.90;;;;;;5068195;28;20338;-64
2023/05/06 02:00:42;;;;;;;16.02;11.68;;;15.10;76.90;;;;;;5068427;28;20116;-64
2023/05/06 02:03:07;;;;;;;15.10;11.00;;;15.10;76.80;;;;;;5072202;28;20076;-64
2023/05/06 02:05:34;;;;;;;16.15;10.98;;;15.10;76.90;;;;;;5072157;28;20085;-64
2023/05/06 02:08:01;;;;;;;15.80;11.15;;;15.10;76.90;;;;;;5062330;28;20033;-63
2023/05/06 02:10:27;;;;;;;14.95;10.82;;;15.10;76.90;;;;;;5071111;28;20105;-63
2023/05/06 02:13:03;;;;;;;14.95;10.73;;;15.00;76.90;;;;;;5070543;28;20029;-64
2023/05/06 02:15:30;;;;;;;13.90;10.70;;;15.00;76.90;;;;;;5054140;28;20158;-63
2023/05/06 02:17:56;;;;;;;14.38;10.43;;;15.00;77.00;;;;;;5063182;28;20028;-63
2023/05/06 02:20:22;;;;;;;15.48;10.63;;;14.90;76.90;;;;;;5072336;28;20095;-64
2023/05/06 02:22:48;;;;;;;15.35;11.55;;;14.90;76.90;;;;;;5075809;28;20039;-63
2023/05/06 02:25:14;;;;;;;14.45;10.55;;;14.90;76.80;;;;;;5072860;28;20066;-63
2023/05/06 02:27:40;;;;;;;14.07;10.68;;;14.80;76.80;;;;;;5073681;28;20442;-63
2023/05/06 02:30:06;;;;;;;14.95;10.10;;;14.80;76.80;;;;;;5069389;28;20021;-63
2023/05/06 02:32:32;;;;;;;14.52;9.85;;;14.80;76.80;;;;;;5075113;28;20032;-63
2023/05/06 02:34:58;;;;;;;14.32;10.75;;;14.80;76.80;;;;;;5068244;28;20035;-63
2023/05/06 02:37:23;;;;;;;13.68;10.10;;;14.80;76.80;;;;;;5073875;28;20025;-64
2023/05/06 02:39:49;;;;;;;14.10;10.50;;;14.70;76.80;;;;;;5075424;28;20345;-63
2023/05/06 02:42:15;;;;;;;14.73;10.23;;;14.70;76.80;;;;;;5074678;28;20021;-63
2023/05/06 02:44:41;;;;;;;14.13;10.55;;;14.70;76.70;;;;;;5070909;28;20446;-63
2023/05/06 02:47:07;;;;;;;15.75;10.77;;;14.60;76.70;;;;;;5073777;28;20021;-64
2023/05/06 02:49:32;;;;;;;14.75;10.52;;;14.60;76.70;;;;;;5067186;28;20509;-63
2023/05/06 02:51:58;;;;;;;15.63;11.07;;;14.60;76.70;;;;;;5074464;28;20129;-63
2023/05/06 02:54:26;;;;;;;14.50;10.50;;;14.60;76.70;;;;;;5066935;28;20186;-63
2023/05/06 02:56:52;;;;;;;15.98;10.80;;;14.50;77.20;;;;;;5075459;28;20046;-63
2023/05/06 02:59:17;;;;;;;14.90;10.82;;;14.50;76.60;;;;;;5074307;28;20363;-63
2023/05/06 03:01:43;;;;;;;13.82;10.45;;;14.50;76.60;;;;;;5069011;28;20040;-64
2023/05/06 03:04:09;;;;;;;17.35;11.63;;;14.50;76.60;;;;;;5063119;28;20028;-63
2023/05/06 03:06:36;;;;;;;14.32;10.30;;;14.50;76.60;;;;;;5068498;28;20048;-63
2023/05/06 03:09:02;;;;;;;14.70;10.45;;;14.40;76.60;;;;;;5059774;28;20029;-63
2023/05/06 03:11:30;;;;;;;14.23;10.98;;;14.40;76.60;;;;;;5059804;28;20029;-63
2023/05/06 03:13:57;;;;;;;15.48;11.13;;;14.40;76.60;;;;;;5067925;28;20429;-63
2023/05/06 03:16:24;;;;;;;16.33;11.25;;;14.40;76.60;;;;;;5067546;28;20056;-63
2023/05/06 03:18:52;;;;;;;15.05;11.00;;;14.30;76.50;;;;;;5060013;28;20022;-63
2023/05/06 03:21:17;;;;;;;17.73;10.93;;;14.30;76.50;;;;;;5061784;28;20103;-63
2023/05/06 03:23:45;;;;;;;16.13;11.55;;;14.30;76.50;;;;;;5073774;28;20032;-63
2023/05/06 03:26:10;;;;;;;15.85;11.05;;;14.30;76.50;;;;;;5067809;28;20089;-63
2023/05/06 03:28:36;;;;;;;18.20;12.20;;;14.20;76.50;;;;;;5066643;28;20116;-63
2023/05/06 03:31:03;;;;;;;15.80;10.77;;;14.20;76.50;;;;;;5064315;28;20033;-63
2023/05/06 03:33:31;;;;;;;15.38;10.88;;;14.20;76.50;;;;;;5068240;28;20025;-63
2023/05/06 03:35:58;;;;;;;18.52;11.65;;;14.20;76.50;;;;;;5063142;28;20044;-63
2023/05/06 03:38:24;;;;;;;16.85;11.90;;;14.20;76.60;;;;;;5055377;28;20025;-63
2023/05/06 03:40:56;;;;;;;16.80;11.95;;;14.20;76.60;;;;;;5065522;28;20025;-63
2023/05/06 03:43:22;;;;;;;16.42;12.32;;;14.10;76.50;;;;;;5073772;28;20042;-63
2023/05/06 03:45:52;;;;;;;16.98;10.98;;;14.20;76.50;;;;;;5070093;28;20453;-63
2023/05/06 03:48:18;;;;;;;14.68;10.77;;;14.10;76.50;;;;;;5062895;28;20032;-63
2023/05/06 03:50:43;;;;;;;17.48;12.23;;;14.10;76.50;;;;;;5067941;28;20460;-63
2023/05/06 03:53:11;;;;;;;16.02;11.45;;;14.10;77.20;;;;;;5070043;28;20028;-63
2023/05/06 03:55:39;;;;;;;18.85;11.57;;;14.10;76.50;;;;;;5070184;28;20399;-63
2023/05/06 03:58:06;;;;;;;16.85;12.43;;;14.10;76.50;;;;;;5058952;28;20055;-63
2023/05/06 04:00:32;;;;;;;16.50;11.40;;;14.00;76.50;;;;;;5071371;28;20032;-63
2023/05/06 04:02:58;;;;;;;16.02;11.65;;;14.00;76.50;;;;;;5070759;28;20127;-63
2023/05/06 04:05:37;;;;;;;15.20;11.38;;;14.00;76.50;;;;;;5060139;28;20040;-63
2023/05/06 04:08:03;;;;;;;17.23;12.43;;;14.10;76.70;;;;;;5067248;28;20454;-63
2023/05/06 04:10:29;;;;;;;18.05;12.25;;;14.10;76.70;;;;;;5072457;28;20132;-63
2023/05/06 04:13:01;;;;;;;16.83;12.75;;;14.10;76.80;;;;;;5068855;28;20025;-63
2023/05/06 04:15:35;;;;;;;20.50;13.68;;;14.10;76.90;;;;;;5048516;28;20425;-63
2023/05/06 04:18:06;;;;;;;21.35;13.38;;;14.10;77.00;;;;;;5055740;28;20028;-63
2023/05/06 04:20:32;;;;;;;19.45;13.35;;;14.10;77.00;;;;;;5069840;28;20433;-63
2023/05/06 04:22:58;;;;;;;19.73;13.75;;;14.10;77.10;;;;;;5068083;28;20124;-63
2023/05/06 04:25:24;;;;;;;17.50;12.10;;;14.10;77.20;;;;;;5066206;28;20021;-63
2023/05/06 04:27:50;;;;;;;18.30;12.98;;;14.10;77.30;;;;;;5068947;28;20036;-63
2023/05/06 04:30:16;;;;;;;17.98;12.45;;;14.10;77.40;;;;;;5062433;28;20369;-63
2023/05/06 04:32:42;;;;;;;15.93;11.85;;;14.10;77.40;;;;;;5069881;28;20032;-63
2023/05/06 04:35:09;;;;;;;21.35;12.32;;;14.10;77.50;;;;;;5060494;28;20055;-63
2023/05/06 04:37:37;;;;;;;16.83;12.18;;;14.20;77.60;;;;;;5065428;28;20112;-63
2023/05/06 04:40:14;;;;;;;19.25;12.85;;;14.20;77.50;;;;;;5066289;28;20047;-63
2023/05/06 04:42:43;;;;;;;18.17;12.50;;;14.20;77.50;;;;;;5069603;28;20025;-63
2023/05/06 04:45:15;;;;;;;19.63;12.10;;;14.20;77.50;;;;;;5065886;28;20516;-64
2023/05/06 04:47:44;;;;;;;19.77;12.45;;;14.20;77.50;;;;;;5061147;28;20020;-63
2023/05/06 04:50:11;;;;;;;18.90;12.63;;;14.20;77.60;;;;;;5069247;28;20021;-64
2023/05/06 04:52:37;;;;;;;17.38;12.43;;;14.20;77.60;;;;;;5075436;28;20024;-64
2023/05/06 04:55:03;;;;;;;16.55;12.07;;;14.20;77.60;;;;;;5055473;28;20326;-64
2023/05/06 04:57:31;;;;;;;16.65;12.07;;;14.20;77.60;;;;;;5062926;28;20477;-63
2023/05/06 04:59:57;;;;;;;17.27;12.52;;;14.20;77.60;;;;;;5065672;28;20036;-63
2023/05/06 05:02:23;;;;;;;16.90;12.45;;;14.20;77.70;;;;;;5063945;28;20041;-63
2023/05/06 05:04:50;;;;;;;17.90;12.13;;;14.20;77.70;;;;;;5069747;28;20029;-64
2023/05/06 05:07:15;;;;;;;17.23;12.38;;;14.20;77.80;;;;;;5069926;28;20042;-63
2023/05/06 05:09:41;;;;;;;17.10;10.75;;;14.30;77.90;;;;;;5068424;28;20040;-64
2023/05/06 05:12:07;;;;;;;18.70;10.23;;;14.30;77.80;;;;;;5072664;28;20036;-65
2023/05/06 05:14:36;;;;;;;20.48;9.57;;;14.30;77.80;;;;;;5056566;28;20071;-65
2023/05/06 05:17:03;;;;;;;16.73;10.85;;;14.30;77.80;;;;;;5072723;28;20024;-65
2023/05/06 05:19:28;;;;;;;14.90;11.05;;;14.30;77.80;;;;;;5060697;28;20017;-65
2023/05/06 05:21:55;;;;;;;15.10;9.80;;;14.30;77.90;;;;;;5072651;28;20323;-65
2023/05/06 05:24:23;;;;;;;12.27;9.23;;;14.30;77.90;;;;;;5072600;28;20024;-65
2023/05/06 05:26:48;;;;;;;14.50;10.05;;;14.30;77.90;;;;;;5072767;28;20090;-65
2023/05/06 05:29:15;;;;;;;13.48;9.93;;;14.30;77.90;;;;;;5070843;28;20040;-65
2023/05/06 05:31:41;;;;;;;15.02;9.45;;;14.30;77.80;;;;;;5050712;28;20051;-65
2023/05/06 05:34:07;;;;;;;13.85;10.25;;;14.40;77.80;;;;;;5068418;28;20356;-64
2023/05/06 05:36:33;;;;;;;13.75;10.50;;;14.40;77.70;;;;;;5045795;28;20036;-65
2023/05/06 05:39:02;;;;;;;13.18;10.13;;;14.50;77.80;;;;;;5061550;28;20024;-65
2023/05/06 05:41:30;;;;;;;14.50;11.70;;;14.50;77.80;;;;;;5066982;28;20451;-65
2023/05/06 05:43:56;;;;;;;15.95;10.32;;;14.50;77.70;;;;;;5065253;28;20025;-65
2023/05/06 05:46:22;;;;;;;13.57;10.55;;;14.50;77.60;;;;;;5048452;28;20437;-65
2023/05/06 05:48:49;;;;;;;16.05;12.20;;;14.50;77.60;;;;;;5061690;28;20067;-65
2023/05/06 05:51:17;;;;;;;14.75;11.70;;;14.60;77.60;;;;;;5066340;28;20367;-65
2023/05/06 05:53:43;;;;;;;14.25;11.52;;;14.60;77.60;;;;;;5063224;28;20047;-64
2023/05/06 05:56:09;;;;;;;15.40;11.57;;;14.70;77.60;;;;;;5062685;28;20021;-64
2023/05/06 05:58:35;;;;;;;13.20;10.48;;;14.70;77.50;;;;;;5061193;28;20063;-64
2023/05/06 06:01:02;;;;;;;13.75;10.63;;;14.70;77.40;;;;;;5073863;28;20021;-64
2023/05/06 06:03:29;;;;;;;14.57;10.77;;;14.80;77.40;;;;;;5051879;28;20024;-64
2023/05/06 06:05:54;;;;;;;14.93;11.15;;;14.80;77.30;;;;;;5074913;28;20031;-65
2023/05/06 06:08:22;;;;;;;14.55;11.40;;;14.90;77.20;;;;;;5066471;28;20134;-64
2023/05/06 06:10:50;;;;;;;13.73;10.90;;;14.90;77.00;;;;;;5062058;28;20043;-65
2023/05/06 06:13:21;;;;;;;14.70;11.43;;;15.00;77.00;;;;;;5067606;28;20089;-64
2023/05/06 06:15:46;;;;;;;14.43;11.18;;;15.10;76.80;;;;;;5067958;28;20025;-64
2023/05/06 06:18:12;;;;;;;14.70;10.93;;;15.20;76.80;;;;;;5064796;28;20025;-64
2023/05/06 06:20:38;;;;;;;12.68;10.23;;;15.30;76.60;;;;;;5067354;28;20115;-64
2023/05/06 06:23:04;;;;;;;14.55;10.95;;;15.40;76.50;;;;;;5070538;28;20345;-64
2023/05/06 06:25:29;;;;;;;14.27;10.98;;;15.60;76.30;;;;;;5062298;28;20488;-64
2023/05/06 06:27:55;;;;;;;14.10;10.88;;;15.70;75.90;;;;;;5070836;28;20033;-64
2023/05/06 06:30:22;;;;;;;13.80;10.60;;;15.70;75.70;;;;;;5069130;28;20056;-64
2023/05/06 06:32:51;;;;;;;13.32;10.50;;;15.80;75.80;;;;;;5066590;28;20568;-64
2023/05/06 06:35:18;;;;;;;15.82;11.00;;;15.80;75.50;;;;;;5069932;28;20043;-64
2023/05/06 06:37:45;;;;;;;14.35;10.80;;;15.90;76.20;;;;;;5059376;28;20422;-64
2023/05/06 06:40:11;;;;;;;14.65;10.93;;;16.10;75.30;;;;;;5065686;28;20036;-64
2023/05/06 06:42:37;;;;;;;14.02;11.05;;;16.10;75.10;;;;;;5066804;28;20575;-64
2023/05/06 06:45:17;;;;;;;13.63;9.80;;;16.10;75.10;;;;;;5066078;28;20025;-64
2023/05/06 06:47:43;;;;;;;13.60;10.73;;;16.10;75.10;;;;;;5065342;28;20090;-64
2023/05/06 06:50:10;;;;;;;13.65;10.57;;;16.00;75.10;;;;;;5065836;28;20017;-63
2023/05/06 06:52:36;;;;;;;15.00;9.73;;;16.00;75.20;;;;;;5065417;28;20024;-64
2023/05/06 06:55:02;;;;;;;13.23;10.15;;;16.00;75.10;;;;;;5062869;28;20035;-65
2023/05/06 06:57:28;;;;;;;13.57;10.82;;;16.00;75.20;;;;;;5065046;28;20032;-64
2023/05/06 06:59:54;;;;;;;13.05;9.73;;;15.90;75.20;;;;;;5065376;28;20173;-66
2023/05/06 07:02:20;;;;;;;13.15;9.55;;;15.90;75.30;;;;;;5061854;28;20040;-65
2023/05/06 07:04:46;;;;;;;14.05;10.23;;;16.00;75.40;;;;;;5067126;28;20035;-65
2023/05/06 07:07:12;;;;;;;12.63;9.82;;;16.00;75.40;;;;;;5071698;28;20386;-65
2023/05/06 07:09:41;;;;;;;14.82;10.00;;;16.00;75.40;;;;;;5067612;28;20028;-65
2023/05/06 07:12:06;;;;;;;14.02;9.95;;;16.00;75.50;;;;;;5065088;28;20037;-64
2023/05/06 07:14:33;;;;;;;11.95;9.57;;;16.00;75.40;;;;;;5065419;28;20040;-65
2023/05/06 07:17:01;;;;;;;13.35;10.50;;;16.10;75.50;;;;;;5060770;28;20082;-66
2023/05/06 07:19:28;;;;;;;13.93;11.10;;;16.10;75.40;;;;;;5065811;28;20527;-66
2023/05/06 07:21:54;;;;;;;12.88;10.57;;;16.10;75.30;;;;;;5066887;28;20028;-66
2023/05/06 07:24:21;;;;;;;13.07;10.52;;;16.10;75.30;;;;;;5069004;28;20582;-65
2023/05/06 07:26:46;;;;;;;12.82;9.80;;;16.20;75.80;;;;;;5067424;28;20073;-66
2023/05/06 07:29:12;;;;;;;13.07;10.80;;;16.20;75.40;;;;;;5067430;28;20020;-65
2023/05/06 07:31:38;;;;;;;14.65;10.70;;;16.20;75.40;;;;;;5067094;28;20418;-65
2023/05/06 07:34:04;;;;;;;13.25;10.85;;;16.20;75.40;;;;;;5068858;28;20021;-65
2023/05/06 07:36:34;;;;;;;14.25;10.45;;;16.30;75.40;;;;;;5069429;28;20048;-65
2023/05/06 07:38:59;;;;;;;13.82;10.60;;;16.40;75.30;;;;;;5058739;28;20036;-65
2023/05/06 07:41:25;;;;;;;13.95;11.18;;;16.40;75.10;;;;;;5059547;28;20422;-65
2023/05/06 07:43:51;;;;;;;14.90;10.73;;;16.50;75.00;;;;;;5063653;28;20028;-66
2023/05/06 07:46:17;;;;;;;13.70;11.10;;;16.60;74.90;;;;;;5068722;28;20046;-67
2023/05/06 07:48:43;;;;;;;13.52;10.95;;;16.80;74.80;;;;;;5051722;28;20502;-66
2023/05/06 07:51:08;;;;;;;13.85;11.35;;;16.90;74.50;;;;;;5069330;28;20024;-67
2023/05/06 07:53:36;;;;;;;14.85;12.20;;;17.10;74.30;;;;;;5064181;28;20461;-67
2023/05/06 07:56:02;;;;;;;15.45;12.13;;;17.30;74.00;;;;;;5065580;28;20028;-67
2023/05/06 07:58:30;;;;;;;15.23;11.23;;;17.40;73.60;;;;;;5069608;28;20043;-64
2023/05/06 08:00:56;;;;;;;15.35;11.18;;;17.50;73.40;;;;;;5072004;28;20044;-66
2023/05/06 08:03:22;;;;;;;14.20;10.38;;;17.50;73.20;;;;;;5072349;28;20115;-67
2023/05/06 08:05:52;;;;;;;15.23;10.82;;;17.60;73.10;;;;;;5074782;28;20334;-67
2023/05/06 08:08:18;;;;;;;15.55;11.00;;;17.60;73.00;;;;;;5057846;28;20085;-67
2023/05/06 08:10:44;;;;;;;17.33;12.13;;;17.60;73.00;;;;;;5075285;28;20020;-65
2023/05/06 08:13:10;;;;;;;14.15;10.85;;;17.60;72.90;;;;;;5070519;28;20302;-66
2023/05/06 08:15:37;;;;;;;13.45;10.35;;;17.60;73.00;;;;;;5074147;28;20051;-66
2023/05/06 08:18:03;;;;;;;14.18;10.98;;;17.70;73.10;;;;;;5074468;28;20041;-66
2023/05/06 08:20:29;;;;;;;15.68;10.82;;;17.70;73.10;;;;;;5074112;28;20078;-66
2023/05/06 08:22:54;;;;;;;15.20;11.40;;;17.70;73.10;;;;;;5090003;28;20025;-66
2023/05/06 08:25:20;;;;;;;14.23;11.65;;;17.60;73.10;;;;;;5074919;28;20414;-66
2023/05/06 08:27:46;;;;;;;15.32;12.23;;;17.60;73.10;;;;;;5074876;28;20415;-66
2023/05/06 08:30:12;;;;;;;13.48;10.23;;;17.60;73.20;;;;;;5074700;28;20024;-66
2023/05/06 08:32:38;;;;;;;13.80;10.52;;;17.70;73.20;;;;;;5072301;28;20025;-66
2023/05/06 08:35:05;;;;;;;16.95;11.55;;;17.80;73.00;;;;;;5071280;28;20020;-66
2023/05/06 08:37:31;;;;;;;15.88;11.45;;;17.90;72.90;;;;;;5073881;28;20522;-66
2023/05/06 08:39:57;;;;;;;14.75;10.68;;;18.00;72.70;;;;;;5063203;28;20020;-65
2023/05/06 08:42:27;;;;;;;14.93;11.52;;;18.10;72.40;;;;;;5063491;28;20082;-66
2023/05/06 08:44:55;;;;;;;15.02;11.45;;;18.10;72.20;;;;;;5063590;28;20124;-66
2023/05/06 08:47:21;;;;;;;16.63;11.40;;;18.20;72.00;;;;;;5073431;28;20048;-64
2023/05/06 08:49:47;;;;;;;14.40;10.70;;;18.40;71.70;;;;;;5071998;28;20056;-64
2023/05/06 08:52:15;;;;;;;14.35;11.50;;;18.60;71.30;;;;;;5072925;28;20032;-65
2023/05/06 08:54:42;;;;;;;14.05;10.80;;;18.70;70.80;;;;;;5066541;28;20437;-65
2023/05/06 08:57:11;;;;;;;14.35;10.68;;;18.90;70.70;;;;;;5065367;28;20499;-65
2023/05/06 08:59:37;;;;;;;13.60;10.38;;;19.00;70.50;;;;;;5066588;28;20024;-65
2023/05/06 09:02:03;;;;;;;13.57;9.85;;;19.20;70.20;;;;;;5072304;28;20056;-65
2023/05/06 09:04:30;;;;;;;15.02;10.52;;;19.40;69.90;;;;;;5073744;28;20111;-65
2023/05/06 09:06:57;;;;;;;14.70;11.27;;;19.50;69.40;;;;;;5065298;28;20028;-65
2023/05/06 09:09:24;;;;;;;14.63;11.05;;;19.70;68.80;;;;;;5071115;28;20409;-65
2023/05/06 09:11:55;;;;;;;13.30;9.63;;;19.80;68.30;;;;;;5065018;28;20029;-64
2023/05/06 09:14:22;;;;;;;14.20;9.90;;;20.00;67.90;;;;;;5064810;28;20060;-65
2023/05/06 09:16:49;;;;;;;13.23;10.23;;;20.10;67.70;;;;;;5065771;28;20494;-65
2023/05/06 09:19:16;;;;;;;12.82;8.85;;;20.20;67.40;;;;;;5073234;28;20020;-65
2023/05/06 09:21:45;;;;;;;13.93;10.45;;;20.30;67.30;;;;;;5073620;28;20029;-65
2023/05/06 09:24:13;;;;;;;14.02;9.63;;;20.30;67.00;;;;;;5069355;28;20120;-65
2023/05/06 09:26:41;;;;;;;13.43;8.75;;;20.40;66.90;;;;;;5061941;28;20033;-65
2023/05/06 09:29:06;;;;;;;13.18;10.10;;;20.40;66.80;;;;;;5062900;28;20070;-65
2023/05/06 09:31:38;;;;;;;13.43;8.52;;;20.70;66.60;;;;;;5059425;28;20036;-65
2023/05/06 09:34:04;;;;;;;12.05;8.18;;;21.00;66.00;;;;;;5063967;28;20032;-65
2023/05/06 09:36:30;;;;;;;13.13;8.52;;;21.40;65.10;;;;;;5068969;28;20075;-65
2023/05/06 09:38:57;;;;;;;15.70;9.05;;;21.80;64.20;;;;;;5065014;28;20031;-65
2023/05/06 09:41:26;;;;;;;11.55;8.25;;;22.10;63.20;;;;;;5068366;28;20020;-65
2023/05/06 09:43:53;;;;;;;10.02;7.35;;;22.20;62.40;;;;;;5061865;28;20108;-65
2023/05/06 09:46:21;;;;;;;11.10;7.68;;;22.30;62.20;;;;;;5067900;28;20040;-65
2023/05/06 09:48:50;;;;;;;11.77;8.02;;;22.40;62.00;;;;;;5067682;28;20092;-64
2023/05/06 09:51:15;;;;;;;12.43;7.80;;;22.30;61.40;;;;;;5070655;28;20040;-65
2023/05/06 09:53:43;;;;;;;9.70;6.47;;;22.30;61.20;;;;;;5061948;28;20024;-64
2023/05/06 09:56:10;;;;;;;11.10;7.53;;;22.40;61.20;;;;;;5066316;28;20064;-64
2023/05/06 09:58:37;;;;;;;11.07;7.93;;;22.50;60.90;;;;;;5059463;28;20036;-64
2023/05/06 10:01:05;;;;;;;12.43;8.40;;;22.50;60.40;;;;;;5068040;28;20040;-64
2023/05/06 10:03:31;;;;;;;13.43;7.40;;;22.60;60.30;;;;;;5070541;28;20060;-64
2023/05/06 10:06:00;;;;;;;12.18;7.35;;;22.60;60.20;;;;;;5068509;28;20479;-64
2023/05/06 10:08:26;;;;;;;10.52;6.75;;;22.50;60.00;;;;;;5063920;28;20402;-64
2023/05/06 10:10:53;;;;;;;11.00;6.57;;;22.60;60.00;;;;;;5065449;28;20020;-64
2023/05/06 10:13:20;;;;;;;9.63;5.63;;;22.70;60.00;;;;;;5083488;28;20037;-64
2023/05/06 10:15:47;;;;;;;11.15;6.72;;;22.90;59.70;;;;;;5054263;28;20028;-64
2023/05/06 10:18:19;;;;;;;9.63;6.28;;;23.10;59.30;;;;;;5063885;28;20025;-64
2023/05/06 10:20:45;;;;;;;;;;;23.20;58.60;;;;;;5064971;28;20017;-64
2023/05/06 10:23:43;;;;;;;9.77;4.78;;;23.30;58.80;;;;;;5058323;28;19913;-64
2023/05/06 10:26:10;;;;;;;8.48;5.07;;;23.30;58.10;;;;;;5056809;28;20101;-65
2023/05/06 10:28:40;;;;;;;8.80;4.25;;;23.50;58.00;;;;;;5053993;28;20044;-64
2023/05/06 10:31:12;;;;;;;6.97;4.28;;;23.60;57.40;;;;;;5057862;28;20033;-65
2023/05/06 10:33:50;;;;;;;9.23;4.47;;;23.60;56.70;;;;;;5065025;28;20052;-65
2023/05/06 10:36:24;;;;;;;9.13;4.47;;;23.40;56.70;;;;;;5066285;28;20099;-65
2023/05/06 10:38:55;;;;;;;6.57;3.72;;;23.40;56.40;;;;;;5065185;28;20155;-65
2023/05/06 10:41:26;;;;;;;8.38;4.43;;;23.40;56.10;;;;;;5056566;28;20029;-65
2023/05/06 10:43:56;;;;;;;8.60;4.82;;;23.40;55.90;;;;;;5075944;28;20356;-65
2023/05/06 10:46:28;;;;;;;8.88;4.90;;;23.40;55.80;;;;;;5057138;28;20470;-67
2023/05/06 10:49:03;;;;;;;8.00;4.60;;;23.40;55.50;;;;;;5075428;28;20044;-67
2023/05/06 10:51:30;;;;;;;8.73;4.70;;;23.30;55.40;;;;;;5069253;28;20051;-67
2023/05/06 10:54:20;;;;;;;7.38;4.10;;;23.20;55.40;;;;;;5074712;28;20473;-67
2023/05/06 10:56:48;;;;;;;9.73;3.95;;;23.20;55.40;;;;;;5076537;28;20021;-67
2023/05/06 10:59:19;;;;;;;7.38;3.83;;;23.20;55.20;;;;;;5076866;28;20028;-67
2023/05/06 11:02:06;;;;;;;7.95;3.72;;;23.20;54.90;;;;;;5075484;28;20066;-67
2023/05/06 11:04:32;;;;;;;9.00;3.88;;;23.20;54.70;;;;;;5075856;28;20099;-67
2023/05/06 11:07:20;;;;;;;7.50;3.40;;;23.30;54.60;;;;;;5076210;28;20189;-67
2023/05/06 11:10:03;;;;;;;6.60;3.17;;;23.30;54.20;;;;;;5076187;28;20357;-67
2023/05/06 11:12:50;;;;;;;6.60;3.08;;;23.30;54.30;;;;;;5074904;28;20029;-67
2023/05/06 11:15:26;;;;;;;7.22;3.67;;;23.40;54.10;;;;;;5075444;28;20131;-67
2023/05/06 11:17:53;;;;;;;8.95;3.95;;;23.40;53.80;;;;;;5075380;28;20087;-67
2023/05/06 11:20:26;;;;;;;8.27;3.97;;;23.30;54.00;;;;;;5075335;28;20024;-67
2023/05/06 11:22:52;;;;;;;6.32;3.35;;;23.10;53.90;;;;;;5075408;28;20036;-67
2023/05/06 11:25:41;;;;;;;9.20;3.20;;;23.00;54.20;;;;;;5075128;28;20025;-67
2023/05/06 11:28:11;;;;;;;8.27;3.55;;;23.10;54.10;;;;;;5064370;28;20493;-67
2023/05/06 11:30:40;;;;;;;7.63;3.70;;;23.20;54.00;;;;;;5074347;28;20033;-67
2023/05/06 11:33:07;;;;;;;6.45;3.08;;;23.30;53.60;;;;;;5065069;28;20028;-67
2023/05/06 11:35:37;;;;;;;7.05;3.63;;;23.40;53.40;;;;;;5073011;28;20024;-67
2023/05/06 11:38:03;;;;;;;6.78;3.30;;;23.40;53.20;;;;;;5074961;28;20078;-67
2023/05/06 11:40:29;;;;;;;6.55;3.20;;;23.30;53.10;;;;;;5075787;28;20534;-67
2023/05/06 11:43:07;;;;;;;7.20;2.92;;;23.30;53.00;;;;;;5070937;28;20013;-67
2023/05/06 11:45:47;;;;;;;6.93;3.30;;;23.40;53.10;;;;;;5069882;28;20397;-67
2023/05/06 11:48:17;;;;;;;6.53;3.15;;;23.50;52.70;;;;;;5073685;28;20163;-67
2023/05/06 11:50:49;;;;;;;8.63;3.40;;;23.50;52.50;;;;;;5075684;28;20395;-67
2023/05/06 11:53:19;;;;;;;7.18;3.47;;;23.50;52.40;;;;;;5073627;28;20033;-67
2023/05/06 11:55:46;;;;;;;6.55;3.30;;;23.30;52.60;;;;;;5074789;28;20024;-67
2023/05/06 11:58:24;;;;;;;6.88;3.15;;;23.20;52.90;;;;;;5075396;28;20070;-67
2023/05/06 12:00:58;;;;;;;7.07;3.03;;;23.20;52.90;;;;;;5075432;28;20028;-67
2023/05/06 12:03:25;;;;;;;7.80;3.28;;;23.20;52.80;;;;;;5074988;28;20070;-67
2023/05/06 12:05:52;;;;;;;6.57;3.08;;;23.20;52.60;;;;;;5073705;28;20031;-67
2023/05/06 12:08:23;;;;;;;6.82;3.22;;;23.30;52.50;;;;;;5064087;28;20021;-67
2023/05/06 12:10:51;;;;;;;8.70;2.92;;;23.30;52.40;;;;;;5074393;28;20044;-67
2023/05/06 12:13:18;;;;;;;6.35;2.80;;;23.30;52.30;;;;;;5073983;28;20041;-67
2023/05/06 12:15:46;;;;;;;6.90;2.70;;;23.20;52.20;;;;;;5074159;28;20086;-67
2023/05/06 12:18:12;;;;;;;6.72;2.65;;;23.20;52.20;;;;;;5073431;28;20326;-67
2023/05/06 12:20:38;;;;;;;5.65;2.50;;;23.20;52.20;;;;;;5073267;28;20047;-67
2023/05/06 12:23:12;;;;;;;6.30;2.92;;;23.10;52.10;;;;;;5074893;28;20454;-67
2023/05/06 12:25:39;;;;;;;6.05;2.45;;;23.10;51.80;;;;;;5074938;28;20818;-67
2023/05/06 12:28:18;;;;;;;6.28;2.63;;;23.20;52.10;;;;;;5072018;28;20037;-67
2023/05/06 12:30:45;;;;;;;5.35;2.60;;;23.20;51.90;;;;;;5073692;28;20021;-67
2023/05/06 12:33:11;;;;;;;6.65;2.85;;;23.10;52.00;;;;;;5074597;28;20040;-67
2023/05/06 12:35:38;;;;;;;6.45;2.75;;;23.00;51.90;;;;;;5074895;28;20023;-67
2023/05/06 12:38:15;;;;;;;7.45;2.95;;;22.80;51.90;;;;;;5073588;28;20081;-67